Vol d’initiation.

Vol d’initiation.

2 400,00

découverte du pilotage d’un L39 Albatros avec un de nos instructeur, durée d’environ 25 minutes.

(ATO FR 0147)

 

Choisissez 3 périodes sur lesquelles vous souhaiteriez voler ! Nous vous recontacterons afin de réserver une de ces 3 périodes ensemble !

Catégorie :

Description

Découverte du pilotage d’un L39 Albatros avec un de nos instructeur, durée d’environ 25 minutes.
(ATO FR 0147)

Voir toute les actualités.

Patrouille Sparflex - figure aérienne - Fly and Fun
Patrouille Sparflex - figure aérienne - Fly and Fun
METAR :

LFQA 100100Z AUTO 33007KT 300V030 CAVOK 24/16 Q1014


vue en direct sur l'aérodrome
mentions légales politique de confidentialité
Cochet Concept
cx